sensor_id;sensor_type;location;lat;lon;timestamp;temperature;humidity
20459;DHT22;10388;52.314;7.938;2023-07-20T00:42:31;15.70;99.90
20459;DHT22;10388;52.314;7.938;2023-07-20T00:49:21;15.70;99.90
20459;DHT22;10388;52.314;7.938;2023-07-20T01:20:33;15.70;99.90
20459;DHT22;10388;52.314;7.938;2023-07-20T01:28:49;15.60;99.90
20459;DHT22;10388;52.314;7.938;2023-07-20T01:31:34;15.60;99.90
20459;DHT22;10388;52.314;7.938;2023-07-20T01:34:09;15.60;99.90
20459;DHT22;10388;52.314;7.938;2023-07-20T01:36:43;15.70;99.90
20459;DHT22;10388;52.314;7.938;2023-07-20T01:39:14;15.60;99.90
20459;DHT22;10388;52.314;7.938;2023-07-20T01:41:45;15.60;99.90
20459;DHT22;10388;52.314;7.938;2023-07-20T01:44:16;15.50;99.90
20459;DHT22;10388;52.314;7.938;2023-07-20T01:46:47;15.40;99.90
20459;DHT22;10388;52.314;7.938;2023-07-20T01:49:18;15.40;99.90
20459;DHT22;10388;52.314;7.938;2023-07-20T01:51:48;15.20;99.90
20459;DHT22;10388;52.314;7.938;2023-07-20T01:54:19;15.10;99.90
20459;DHT22;10388;52.314;7.938;2023-07-20T01:56:55;15.00;99.90
20459;DHT22;10388;52.314;7.938;2023-07-20T01:59:27;15.10;99.90
20459;DHT22;10388;52.314;7.938;2023-07-20T02:01:58;15.10;99.90
20459;DHT22;10388;52.314;7.938;2023-07-20T02:04:33;15.10;99.90
20459;DHT22;10388;52.314;7.938;2023-07-20T02:13:50;15.00;99.90
20459;DHT22;10388;52.314;7.938;2023-07-20T02:16:44;15.00;99.90
20459;DHT22;10388;52.314;7.938;2023-07-20T02:22:44;14.90;99.90
20459;DHT22;10388;52.314;7.938;2023-07-20T02:25:15;14.80;99.90
20459;DHT22;10388;52.314;7.938;2023-07-20T02:27:58;14.80;99.90
20459;DHT22;10388;52.314;7.938;2023-07-20T02:30:29;14.70;99.90
20459;DHT22;10388;52.314;7.938;2023-07-20T02:33:00;14.80;99.90
20459;DHT22;10388;52.314;7.938;2023-07-20T02:35:35;14.70;99.90
20459;DHT22;10388;52.314;7.938;2023-07-20T02:38:06;14.70;99.90
20459;DHT22;10388;52.314;7.938;2023-07-20T02:40:37;14.70;99.90
20459;DHT22;10388;52.314;7.938;2023-07-20T02:43:08;14.80;99.90
20459;DHT22;10388;52.314;7.938;2023-07-20T02:45:43;14.80;99.90
20459;DHT22;10388;52.314;7.938;2023-07-20T02:48:14;14.80;99.90
20459;DHT22;10388;52.314;7.938;2023-07-20T02:50:45;14.80;99.90
20459;DHT22;10388;52.314;7.938;2023-07-20T02:53:16;14.80;99.90
20459;DHT22;10388;52.314;7.938;2023-07-20T02:55:46;14.70;99.90
20459;DHT22;10388;52.314;7.938;2023-07-20T02:58:18;14.60;99.90
20459;DHT22;10388;52.314;7.938;2023-07-20T03:00:52;14.60;99.90
20459;DHT22;10388;52.314;7.938;2023-07-20T03:03:25;14.60;99.90
20459;DHT22;10388;52.314;7.938;2023-07-20T03:06:01;14.60;99.90
20459;DHT22;10388;52.314;7.938;2023-07-20T03:08:33;14.70;99.90
20459;DHT22;10388;52.314;7.938;2023-07-20T03:11:06;14.70;99.90
20459;DHT22;10388;52.314;7.938;2023-07-20T03:17:04;14.70;99.90
20459;DHT22;10388;52.314;7.938;2023-07-20T03:26:25;14.70;99.90
20459;DHT22;10388;52.314;7.938;2023-07-20T03:28:59;14.60;99.90
20459;DHT22;10388;52.314;7.938;2023-07-20T03:31:33;14.70;99.90
20459;DHT22;10388;52.314;7.938;2023-07-20T03:34:43;14.70;99.90
20459;DHT22;10388;52.314;7.938;2023-07-20T03:37:16;14.60;99.90
20459;DHT22;10388;52.314;7.938;2023-07-20T03:39:58;14.60;99.90
20459;DHT22;10388;52.314;7.938;2023-07-20T03:42:51;14.60;99.90
20459;DHT22;10388;52.314;7.938;2023-07-20T03:45:26;14.60;99.90
20459;DHT22;10388;52.314;7.938;2023-07-20T03:48:12;14.60;99.90
20459;DHT22;10388;52.314;7.938;2023-07-20T03:51:12;14.60;99.90
20459;DHT22;10388;52.314;7.938;2023-07-20T03:53:46;14.60;99.90
20459;DHT22;10388;52.314;7.938;2023-07-20T03:56:38;14.60;99.90
20459;DHT22;10388;52.314;7.938;2023-07-20T03:59:12;14.60;99.90
20459;DHT22;10388;52.314;7.938;2023-07-20T04:01:43;14.60;99.90
20459;DHT22;10388;52.314;7.938;2023-07-20T04:04:23;14.60;99.90
20459;DHT22;10388;52.314;7.938;2023-07-20T04:06:54;14.50;99.90
20459;DHT22;10388;52.314;7.938;2023-07-20T04:09:25;14.50;99.90
20459;DHT22;10388;52.314;7.938;2023-07-20T04:11:58;14.50;99.90
20459;DHT22;10388;52.314;7.938;2023-07-20T04:14:28;14.50;99.90
20459;DHT22;10388;52.314;7.938;2023-07-20T04:16:59;14.50;99.90
20459;DHT22;10388;52.314;7.938;2023-07-20T04:19:30;14.50;99.90
20459;DHT22;10388;52.314;7.938;2023-07-20T04:22:01;14.50;99.90
20459;DHT22;10388;52.314;7.938;2023-07-20T04:24:32;14.50;99.90
20459;DHT22;10388;52.314;7.938;2023-07-20T04:27:03;14.50;99.90
20459;DHT22;10388;52.314;7.938;2023-07-20T04:29:33;14.50;99.90
20459;DHT22;10388;52.314;7.938;2023-07-20T04:32:04;14.50;99.90
20459;DHT22;10388;52.314;7.938;2023-07-20T04:34:35;14.50;99.90
20459;DHT22;10388;52.314;7.938;2023-07-20T04:37:07;14.50;99.90
20459;DHT22;10388;52.314;7.938;2023-07-20T04:39:38;14.50;99.90
20459;DHT22;10388;52.314;7.938;2023-07-20T04:42:08;14.60;99.90
20459;DHT22;10388;52.314;7.938;2023-07-20T04:44:39;14.60;99.90
20459;DHT22;10388;52.314;7.938;2023-07-20T04:47:09;14.60;99.90
20459;DHT22;10388;52.314;7.938;2023-07-20T04:49:40;14.60;99.90
20459;DHT22;10388;52.314;7.938;2023-07-20T04:52:11;14.70;99.90
20459;DHT22;10388;52.314;7.938;2023-07-20T04:54:41;14.90;99.90
20459;DHT22;10388;52.314;7.938;2023-07-20T04:57:12;14.90;99.90
20459;DHT22;10388;52.314;7.938;2023-07-20T04:59:43;14.90;99.90
20459;DHT22;10388;52.314;7.938;2023-07-20T05:02:13;14.80;99.90
20459;DHT22;10388;52.314;7.938;2023-07-20T05:04:44;14.80;99.90
20459;DHT22;10388;52.314;7.938;2023-07-20T05:07:14;14.80;99.90
20459;DHT22;10388;52.314;7.938;2023-07-20T05:09:45;14.80;99.90
20459;DHT22;10388;52.314;7.938;2023-07-20T05:12:16;14.90;99.90
20459;DHT22;10388;52.314;7.938;2023-07-20T05:14:46;14.90;99.90
20459;DHT22;10388;52.314;7.938;2023-07-20T05:17:17;15.00;99.90
20459;DHT22;10388;52.314;7.938;2023-07-20T05:19:47;15.10;99.90
20459;DHT22;10388;52.314;7.938;2023-07-20T05:22:18;15.10;99.90
20459;DHT22;10388;52.314;7.938;2023-07-20T05:24:48;15.10;99.90
20459;DHT22;10388;52.314;7.938;2023-07-20T05:27:19;15.20;99.90
20459;DHT22;10388;52.314;7.938;2023-07-20T05:29:49;15.10;99.90
20459;DHT22;10388;52.314;7.938;2023-07-20T05:32:20;15.10;99.90
20459;DHT22;10388;52.314;7.938;2023-07-20T05:34:54;15.20;99.90
20459;DHT22;10388;52.314;7.938;2023-07-20T05:37:24;15.40;99.90
20459;DHT22;10388;52.314;7.938;2023-07-20T05:39:55;15.30;99.90
20459;DHT22;10388;52.314;7.938;2023-07-20T05:42:25;15.30;99.90
20459;DHT22;10388;52.314;7.938;2023-07-20T05:44:56;15.40;99.90
20459;DHT22;10388;52.314;7.938;2023-07-20T05:47:26;15.40;99.90
20459;DHT22;10388;52.314;7.938;2023-07-20T05:49:57;15.40;99.90
20459;DHT22;10388;52.314;7.938;2023-07-20T05:52:27;15.50;99.90
20459;DHT22;10388;52.314;7.938;2023-07-20T05:54:58;15.60;99.90
20459;DHT22;10388;52.314;7.938;2023-07-20T05:57:28;15.70;99.90
20459;DHT22;10388;52.314;7.938;2023-07-20T05:59:59;15.80;99.90
20459;DHT22;10388;52.314;7.938;2023-07-20T06:02:29;16.10;99.90
20459;DHT22;10388;52.314;7.938;2023-07-20T06:05:00;16.10;99.90
20459;DHT22;10388;52.314;7.938;2023-07-20T06:07:31;16.10;99.90
20459;DHT22;10388;52.314;7.938;2023-07-20T06:10:02;16.00;99.90
20459;DHT22;10388;52.314;7.938;2023-07-20T06:12:33;15.70;99.90
20459;DHT22;10388;52.314;7.938;2023-07-20T06:15:05;15.60;99.90
20459;DHT22;10388;52.314;7.938;2023-07-20T06:17:36;15.70;99.90
20459;DHT22;10388;52.314;7.938;2023-07-20T06:20:07;15.60;99.90
20459;DHT22;10388;52.314;7.938;2023-07-20T06:22:38;15.50;99.90
20459;DHT22;10388;52.314;7.938;2023-07-20T06:25:09;15.50;99.90
20459;DHT22;10388;52.314;7.938;2023-07-20T06:27:40;15.60;99.90
20459;DHT22;10388;52.314;7.938;2023-07-20T06:30:10;15.70;99.90
20459;DHT22;10388;52.314;7.938;2023-07-20T06:32:42;15.80;99.90
20459;DHT22;10388;52.314;7.938;2023-07-20T06:35:13;16.00;99.90
20459;DHT22;10388;52.314;7.938;2023-07-20T06:37:43;16.00;99.90
20459;DHT22;10388;52.314;7.938;2023-07-20T06:40:14;16.00;99.90
20459;DHT22;10388;52.314;7.938;2023-07-20T06:42:44;16.10;99.90
20459;DHT22;10388;52.314;7.938;2023-07-20T06:45:15;16.20;99.90
20459;DHT22;10388;52.314;7.938;2023-07-20T06:47:46;16.20;99.90
20459;DHT22;10388;52.314;7.938;2023-07-20T06:50:17;16.20;99.90
20459;DHT22;10388;52.314;7.938;2023-07-20T06:52:47;16.40;99.90
20459;DHT22;10388;52.314;7.938;2023-07-20T06:55:18;16.40;99.90
20459;DHT22;10388;52.314;7.938;2023-07-20T06:57:48;16.40;99.90
20459;DHT22;10388;52.314;7.938;2023-07-20T07:00:19;16.30;99.90
20459;DHT22;10388;52.314;7.938;2023-07-20T07:02:50;16.50;99.90
20459;DHT22;10388;52.314;7.938;2023-07-20T07:05:20;16.40;99.90
20459;DHT22;10388;52.314;7.938;2023-07-20T07:07:51;16.60;99.90
20459;DHT22;10388;52.314;7.938;2023-07-20T07:10:22;16.90;99.90
20459;DHT22;10388;52.314;7.938;2023-07-20T07:12:52;17.20;99.90
20459;DHT22;10388;52.314;7.938;2023-07-20T07:15:23;17.20;99.90
20459;DHT22;10388;52.314;7.938;2023-07-20T07:17:54;17.50;99.90
20459;DHT22;10388;52.314;7.938;2023-07-20T07:20:24;17.80;99.90
20459;DHT22;10388;52.314;7.938;2023-07-20T07:22:55;17.80;99.90
20459;DHT22;10388;52.314;7.938;2023-07-20T07:25:27;17.70;99.90
20459;DHT22;10388;52.314;7.938;2023-07-20T07:27:58;17.30;99.90
20459;DHT22;10388;52.314;7.938;2023-07-20T07:30:28;17.10;99.90
20459;DHT22;10388;52.314;7.938;2023-07-20T07:32:59;17.00;99.90
20459;DHT22;10388;52.314;7.938;2023-07-20T07:35:30;17.30;99.90
20459;DHT22;10388;52.314;7.938;2023-07-20T07:38:00;17.50;99.90
20459;DHT22;10388;52.314;7.938;2023-07-20T07:40:31;17.60;99.90
20459;DHT22;10388;52.314;7.938;2023-07-20T07:43:01;17.60;99.90
20459;DHT22;10388;52.314;7.938;2023-07-20T07:45:34;17.30;99.90
20459;DHT22;10388;52.314;7.938;2023-07-20T07:48:08;17.60;99.90
20459;DHT22;10388;52.314;7.938;2023-07-20T07:50:41;17.80;99.90
20459;DHT22;10388;52.314;7.938;2023-07-20T07:53:12;18.10;99.90
20459;DHT22;10388;52.314;7.938;2023-07-20T07:55:43;18.20;99.90
20459;DHT22;10388;52.314;7.938;2023-07-20T07:58:13;18.00;99.90
20459;DHT22;10388;52.314;7.938;2023-07-20T08:00:44;18.10;99.90
20459;DHT22;10388;52.314;7.938;2023-07-20T08:03:14;18.20;99.90
20459;DHT22;10388;52.314;7.938;2023-07-20T08:05:45;18.40;99.90
20459;DHT22;10388;52.314;7.938;2023-07-20T08:08:15;18.20;99.90
20459;DHT22;10388;52.314;7.938;2023-07-20T08:10:46;18.20;99.90
20459;DHT22;10388;52.314;7.938;2023-07-20T08:13:17;18.30;99.90
20459;DHT22;10388;52.314;7.938;2023-07-20T08:15:50;18.50;99.90
20459;DHT22;10388;52.314;7.938;2023-07-20T08:18:21;18.50;99.90
20459;DHT22;10388;52.314;7.938;2023-07-20T08:20:52;18.20;99.90
20459;DHT22;10388;52.314;7.938;2023-07-20T08:23:23;18.00;99.90
20459;DHT22;10388;52.314;7.938;2023-07-20T08:25:54;17.60;99.90
20459;DHT22;10388;52.314;7.938;2023-07-20T08:28:24;17.50;99.90
20459;DHT22;10388;52.314;7.938;2023-07-20T08:30:57;17.90;99.90
20459;DHT22;10388;52.314;7.938;2023-07-20T08:33:27;18.20;99.90
20459;DHT22;10388;52.314;7.938;2023-07-20T08:36:02;18.60;99.90
20459;DHT22;10388;52.314;7.938;2023-07-20T08:38:34;18.90;99.90
20459;DHT22;10388;52.314;7.938;2023-07-20T08:41:04;19.10;99.90
20459;DHT22;10388;52.314;7.938;2023-07-20T08:43:37;19.10;99.90
20459;DHT22;10388;52.314;7.938;2023-07-20T08:46:10;19.20;99.90
20459;DHT22;10388;52.314;7.938;2023-07-20T08:48:42;19.20;99.90
20459;DHT22;10388;52.314;7.938;2023-07-20T08:51:13;19.20;99.90
20459;DHT22;10388;52.314;7.938;2023-07-20T08:53:45;19.20;99.90
20459;DHT22;10388;52.314;7.938;2023-07-20T08:56:18;19.10;99.90
20459;DHT22;10388;52.314;7.938;2023-07-20T08:58:50;19.40;99.90
20459;DHT22;10388;52.314;7.938;2023-07-20T09:01:22;19.60;99.90
20459;DHT22;10388;52.314;7.938;2023-07-20T09:03:52;19.50;99.90
20459;DHT22;10388;52.314;7.938;2023-07-20T09:06:23;19.60;99.90
20459;DHT22;10388;52.314;7.938;2023-07-20T09:08:53;19.50;99.90
20459;DHT22;10388;52.314;7.938;2023-07-20T09:11:24;19.70;99.90
20459;DHT22;10388;52.314;7.938;2023-07-20T09:14:06;19.50;99.90
20459;DHT22;10388;52.314;7.938;2023-07-20T09:16:47;19.50;99.90
20459;DHT22;10388;52.314;7.938;2023-07-20T09:19:19;19.50;99.90
20459;DHT22;10388;52.314;7.938;2023-07-20T09:21:51;19.50;99.90
20459;DHT22;10388;52.314;7.938;2023-07-20T09:24:22;19.20;99.90
20459;DHT22;10388;52.314;7.938;2023-07-20T09:26:52;19.10;99.90
20459;DHT22;10388;52.314;7.938;2023-07-20T09:29:23;19.40;99.90
20459;DHT22;10388;52.314;7.938;2023-07-20T09:32:01;19.70;99.90
20459;DHT22;10388;52.314;7.938;2023-07-20T09:34:32;20.10;99.90
20459;DHT22;10388;52.314;7.938;2023-07-20T09:37:03;19.90;99.90
20459;DHT22;10388;52.314;7.938;2023-07-20T09:39:45;20.00;99.90
20459;DHT22;10388;52.314;7.938;2023-07-20T09:42:16;20.20;99.90
20459;DHT22;10388;52.314;7.938;2023-07-20T09:44:46;20.50;99.90
20459;DHT22;10388;52.314;7.938;2023-07-20T09:47:24;20.60;99.90
20459;DHT22;10388;52.314;7.938;2023-07-20T09:49:58;20.60;99.90
20459;DHT22;10388;52.314;7.938;2023-07-20T09:52:30;20.80;99.90
20459;DHT22;10388;52.314;7.938;2023-07-20T09:55:02;20.70;99.90
20459;DHT22;10388;52.314;7.938;2023-07-20T09:57:34;20.90;99.90
20459;DHT22;10388;52.314;7.938;2023-07-20T10:00:07;21.10;99.90
20459;DHT22;10388;52.314;7.938;2023-07-20T10:02:45;21.30;99.90
20459;DHT22;10388;52.314;7.938;2023-07-20T10:05:16;21.50;99.90
20459;DHT22;10388;52.314;7.938;2023-07-20T10:07:48;21.50;99.90
20459;DHT22;10388;52.314;7.938;2023-07-20T10:10:19;21.10;99.90
20459;DHT22;10388;52.314;7.938;2023-07-20T10:12:50;21.10;99.90
20459;DHT22;10388;52.314;7.938;2023-07-20T10:15:53;21.10;99.90
20459;DHT22;10388;52.314;7.938;2023-07-20T10:18:31;21.50;99.90
20459;DHT22;10388;52.314;7.938;2023-07-20T10:21:06;21.50;99.90
20459;DHT22;10388;52.314;7.938;2023-07-20T10:23:39;21.50;99.90
20459;DHT22;10388;52.314;7.938;2023-07-20T10:26:09;21.60;99.90
20459;DHT22;10388;52.314;7.938;2023-07-20T10:28:40;21.60;99.90
20459;DHT22;10388;52.314;7.938;2023-07-20T10:31:12;21.70;99.90
20459;DHT22;10388;52.314;7.938;2023-07-20T10:33:44;21.60;99.90
20459;DHT22;10388;52.314;7.938;2023-07-20T10:36:14;21.60;99.90
20459;DHT22;10388;52.314;7.938;2023-07-20T10:41:20;21.80;99.90
20459;DHT22;10388;52.314;7.938;2023-07-20T10:43:51;21.60;99.90
20459;DHT22;10388;52.314;7.938;2023-07-20T10:46:41;21.60;99.90
20459;DHT22;10388;52.314;7.938;2023-07-20T10:49:14;21.40;99.90
20459;DHT22;10388;52.314;7.938;2023-07-20T10:51:47;21.60;99.90
20459;DHT22;10388;52.314;7.938;2023-07-20T10:56:49;21.20;99.90
20459;DHT22;10388;52.314;7.938;2023-07-20T10:59:36;21.20;99.90
20459;DHT22;10388;52.314;7.938;2023-07-20T11:02:08;21.70;99.90
20459;DHT22;10388;52.314;7.938;2023-07-20T11:04:43;21.80;99.90
20459;DHT22;10388;52.314;7.938;2023-07-20T11:07:35;21.60;99.90
20459;DHT22;10388;52.314;7.938;2023-07-20T11:10:14;21.10;99.90
20459;DHT22;10388;52.314;7.938;2023-07-20T11:13:17;21.00;99.90
20459;DHT22;10388;52.314;7.938;2023-07-20T11:18:28;21.70;99.90
20459;DHT22;10388;52.314;7.938;2023-07-20T11:20:58;21.70;99.90
20459;DHT22;10388;52.314;7.938;2023-07-20T11:23:29;21.50;99.90
20459;DHT22;10388;52.314;7.938;2023-07-20T11:26:02;21.70;99.90
20459;DHT22;10388;52.314;7.938;2023-07-20T11:28:34;21.60;99.90
20459;DHT22;10388;52.314;7.938;2023-07-20T11:31:04;21.40;99.90
20459;DHT22;10388;52.314;7.938;2023-07-20T11:33:35;21.40;99.90
20459;DHT22;10388;52.314;7.938;2023-07-20T11:36:06;21.30;99.90
20459;DHT22;10388;52.314;7.938;2023-07-20T11:38:36;21.20;99.90
20459;DHT22;10388;52.314;7.938;2023-07-20T11:41:07;21.50;99.90
20459;DHT22;10388;52.314;7.938;2023-07-20T11:43:38;21.40;99.90
20459;DHT22;10388;52.314;7.938;2023-07-20T11:46:09;21.30;99.90
20459;DHT22;10388;52.314;7.938;2023-07-20T11:48:39;21.20;99.90
20459;DHT22;10388;52.314;7.938;2023-07-20T11:51:16;20.90;99.90
20459;DHT22;10388;52.314;7.938;2023-07-20T11:53:47;20.70;99.90
20459;DHT22;10388;52.314;7.938;2023-07-20T11:56:18;21.00;99.90
20459;DHT22;10388;52.314;7.938;2023-07-20T11:58:48;21.40;99.90
20459;DHT22;10388;52.314;7.938;2023-07-20T12:01:19;21.10;99.90
20459;DHT22;10388;52.314;7.938;2023-07-20T12:03:52;21.10;99.90
20459;DHT22;10388;52.314;7.938;2023-07-20T12:06:27;21.10;99.90
20459;DHT22;10388;52.314;7.938;2023-07-20T12:08:58;21.10;99.90
20459;DHT22;10388;52.314;7.938;2023-07-20T12:11:37;21.10;99.90
20459;DHT22;10388;52.314;7.938;2023-07-20T12:14:08;20.90;99.90
20459;DHT22;10388;52.314;7.938;2023-07-20T12:16:39;20.90;99.90
20459;DHT22;10388;52.314;7.938;2023-07-20T12:19:13;21.00;99.90
20459;DHT22;10388;52.314;7.938;2023-07-20T12:21:44;20.90;99.90
20459;DHT22;10388;52.314;7.938;2023-07-20T12:24:14;20.90;99.90
20459;DHT22;10388;52.314;7.938;2023-07-20T12:26:47;20.70;99.90
20459;DHT22;10388;52.314;7.938;2023-07-20T12:29:18;20.80;99.90
20459;DHT22;10388;52.314;7.938;2023-07-20T12:31:48;20.80;99.90
20459;DHT22;10388;52.314;7.938;2023-07-20T12:34:19;20.70;99.90
20459;DHT22;10388;52.314;7.938;2023-07-20T12:36:49;20.80;99.90
20459;DHT22;10388;52.314;7.938;2023-07-20T12:39:20;20.70;99.90
20459;DHT22;10388;52.314;7.938;2023-07-20T12:41:50;20.80;99.90
20459;DHT22;10388;52.314;7.938;2023-07-20T12:44:21;20.70;99.90
20459;DHT22;10388;52.314;7.938;2023-07-20T12:46:51;20.60;99.90
20459;DHT22;10388;52.314;7.938;2023-07-20T12:49:22;20.60;99.90
20459;DHT22;10388;52.314;7.938;2023-07-20T12:51:52;20.30;99.90
20459;DHT22;10388;52.314;7.938;2023-07-20T12:54:23;20.10;99.90
20459;DHT22;10388;52.314;7.938;2023-07-20T12:56:53;19.90;99.90
20459;DHT22;10388;52.314;7.938;2023-07-20T12:59:23;19.80;99.90
20459;DHT22;10388;52.314;7.938;2023-07-20T13:01:54;19.70;99.90
20459;DHT22;10388;52.314;7.938;2023-07-20T13:04:24;19.50;99.90
20459;DHT22;10388;52.314;7.938;2023-07-20T13:06:55;19.20;99.90
20459;DHT22;10388;52.314;7.938;2023-07-20T13:09:26;18.90;99.90
20459;DHT22;10388;52.314;7.938;2023-07-20T13:11:56;18.80;99.90
20459;DHT22;10388;52.314;7.938;2023-07-20T13:14:27;18.70;99.90
20459;DHT22;10388;52.314;7.938;2023-07-20T13:16:59;18.60;99.90
20459;DHT22;10388;52.314;7.938;2023-07-20T13:19:30;18.60;99.90
20459;DHT22;10388;52.314;7.938;2023-07-20T13:22:00;18.50;99.90
20459;DHT22;10388;52.314;7.938;2023-07-20T13:24:31;18.60;99.90
20459;DHT22;10388;52.314;7.938;2023-07-20T13:27:01;18.50;99.90
20459;DHT22;10388;52.314;7.938;2023-07-20T13:29:32;18.60;99.90
20459;DHT22;10388;52.314;7.938;2023-07-20T13:32:03;18.60;99.90
20459;DHT22;10388;52.314;7.938;2023-07-20T13:34:35;18.70;99.90
20459;DHT22;10388;52.314;7.938;2023-07-20T13:37:06;18.70;99.90
20459;DHT22;10388;52.314;7.938;2023-07-20T13:39:37;18.70;99.90
20459;DHT22;10388;52.314;7.938;2023-07-20T13:42:07;18.70;99.90
20459;DHT22;10388;52.314;7.938;2023-07-20T13:44:40;18.70;99.90
20459;DHT22;10388;52.314;7.938;2023-07-20T13:47:11;18.70;99.90
20459;DHT22;10388;52.314;7.938;2023-07-20T13:49:43;18.70;99.90
20459;DHT22;10388;52.314;7.938;2023-07-20T13:52:14;18.70;99.90
20459;DHT22;10388;52.314;7.938;2023-07-20T13:54:45;18.60;99.90
20459;DHT22;10388;52.314;7.938;2023-07-20T13:57:16;18.60;99.90
20459;DHT22;10388;52.314;7.938;2023-07-20T13:59:46;18.50;99.90
20459;DHT22;10388;52.314;7.938;2023-07-20T14:02:17;18.50;99.90
20459;DHT22;10388;52.314;7.938;2023-07-20T14:04:47;18.50;99.90
20459;DHT22;10388;52.314;7.938;2023-07-20T14:07:18;18.50;99.90
20459;DHT22;10388;52.314;7.938;2023-07-20T14:09:49;18.60;99.90
20459;DHT22;10388;52.314;7.938;2023-07-20T14:12:19;18.60;99.90
20459;DHT22;10388;52.314;7.938;2023-07-20T14:14:50;18.70;99.90
20459;DHT22;10388;52.314;7.938;2023-07-20T14:17:21;18.80;99.90
20459;DHT22;10388;52.314;7.938;2023-07-20T14:19:52;18.90;99.90
20459;DHT22;10388;52.314;7.938;2023-07-20T14:22:23;19.00;99.90
20459;DHT22;10388;52.314;7.938;2023-07-20T14:24:54;19.00;99.90
20459;DHT22;10388;52.314;7.938;2023-07-20T14:27:24;19.10;99.90
20459;DHT22;10388;52.314;7.938;2023-07-20T14:29:55;19.20;99.90
20459;DHT22;10388;52.314;7.938;2023-07-20T14:32:26;19.20;99.90
20459;DHT22;10388;52.314;7.938;2023-07-20T14:34:56;19.40;99.90
20459;DHT22;10388;52.314;7.938;2023-07-20T14:37:27;19.40;99.90
20459;DHT22;10388;52.314;7.938;2023-07-20T14:39:57;19.50;99.90
20459;DHT22;10388;52.314;7.938;2023-07-20T14:42:28;19.60;99.90
20459;DHT22;10388;52.314;7.938;2023-07-20T14:44:58;19.80;99.90
20459;DHT22;10388;52.314;7.938;2023-07-20T14:47:29;19.90;99.90
20459;DHT22;10388;52.314;7.938;2023-07-20T14:50:02;20.20;99.90
20459;DHT22;10388;52.314;7.938;2023-07-20T14:52:33;20.40;99.90
20459;DHT22;10388;52.314;7.938;2023-07-20T14:55:04;20.50;99.90
20459;DHT22;10388;52.314;7.938;2023-07-20T14:57:34;20.50;99.90
20459;DHT22;10388;52.314;7.938;2023-07-20T15:00:05;20.40;99.90
20459;DHT22;10388;52.314;7.938;2023-07-20T15:02:41;20.30;99.90
20459;DHT22;10388;52.314;7.938;2023-07-20T15:05:11;20.20;99.90
20459;DHT22;10388;52.314;7.938;2023-07-20T15:07:42;20.20;99.90
20459;DHT22;10388;52.314;7.938;2023-07-20T15:10:13;20.20;99.90
20459;DHT22;10388;52.314;7.938;2023-07-20T15:12:44;20.20;99.90
20459;DHT22;10388;52.314;7.938;2023-07-20T15:15:15;20.20;99.90
20459;DHT22;10388;52.314;7.938;2023-07-20T15:17:45;20.20;99.90
20459;DHT22;10388;52.314;7.938;2023-07-20T15:20:16;20.20;99.90
20459;DHT22;10388;52.314;7.938;2023-07-20T15:22:47;20.20;99.90
20459;DHT22;10388;52.314;7.938;2023-07-20T15:25:17;20.20;99.90
20459;DHT22;10388;52.314;7.938;2023-07-20T15:27:48;20.10;99.90
20459;DHT22;10388;52.314;7.938;2023-07-20T15:30:19;20.10;99.90
20459;DHT22;10388;52.314;7.938;2023-07-20T15:32:49;20.20;99.90
20459;DHT22;10388;52.314;7.938;2023-07-20T15:35:20;20.20;99.90
20459;DHT22;10388;52.314;7.938;2023-07-20T15:37:50;20.20;99.90
20459;DHT22;10388;52.314;7.938;2023-07-20T15:40:21;20.10;99.90
20459;DHT22;10388;52.314;7.938;2023-07-20T15:42:51;19.90;99.90
20459;DHT22;10388;52.314;7.938;2023-07-20T15:45:22;19.80;99.90
20459;DHT22;10388;52.314;7.938;2023-07-20T15:47:53;19.70;99.90
20459;DHT22;10388;52.314;7.938;2023-07-20T15:50:24;19.70;99.90
20459;DHT22;10388;52.314;7.938;2023-07-20T15:52:55;19.60;99.90
20459;DHT22;10388;52.314;7.938;2023-07-20T15:55:25;19.70;99.90
20459;DHT22;10388;52.314;7.938;2023-07-20T15:57:56;19.80;99.90
20459;DHT22;10388;52.314;7.938;2023-07-20T16:00:26;19.90;99.90
20459;DHT22;10388;52.314;7.938;2023-07-20T16:02:57;19.90;99.90
20459;DHT22;10388;52.314;7.938;2023-07-20T16:05:27;19.80;99.90
20459;DHT22;10388;52.314;7.938;2023-07-20T16:07:58;19.90;99.90
20459;DHT22;10388;52.314;7.938;2023-07-20T16:10:28;19.90;99.90
20459;DHT22;10388;52.314;7.938;2023-07-20T16:12:59;19.80;99.90
20459;DHT22;10388;52.314;7.938;2023-07-20T16:15:30;19.80;99.90
20459;DHT22;10388;52.314;7.938;2023-07-20T16:18:00;19.80;99.90
20459;DHT22;10388;52.314;7.938;2023-07-20T16:20:31;19.80;99.90
20459;DHT22;10388;52.314;7.938;2023-07-20T16:23:01;19.80;99.90
20459;DHT22;10388;52.314;7.938;2023-07-20T16:25:35;19.80;99.90
20459;DHT22;10388;52.314;7.938;2023-07-20T16:28:06;19.80;99.90
20459;DHT22;10388;52.314;7.938;2023-07-20T16:30:36;19.90;99.90
20459;DHT22;10388;52.314;7.938;2023-07-20T16:33:07;19.90;99.90
20459;DHT22;10388;52.314;7.938;2023-07-20T16:35:38;20.00;99.90
20459;DHT22;10388;52.314;7.938;2023-07-20T16:38:09;20.00;99.90
20459;DHT22;10388;52.314;7.938;2023-07-20T16:40:43;20.10;99.90
20459;DHT22;10388;52.314;7.938;2023-07-20T16:43:13;20.30;99.90
20459;DHT22;10388;52.314;7.938;2023-07-20T16:45:44;20.30;99.90
20459;DHT22;10388;52.314;7.938;2023-07-20T16:48:14;20.20;99.90
20459;DHT22;10388;52.314;7.938;2023-07-20T16:50:45;20.10;99.90
20459;DHT22;10388;52.314;7.938;2023-07-20T16:53:16;20.00;99.90
20459;DHT22;10388;52.314;7.938;2023-07-20T16:55:50;20.00;99.90
20459;DHT22;10388;52.314;7.938;2023-07-20T16:58:26;19.90;99.90
20459;DHT22;10388;52.314;7.938;2023-07-20T17:01:03;19.80;99.90
20459;DHT22;10388;52.314;7.938;2023-07-20T17:03:37;19.80;99.90
20459;DHT22;10388;52.314;7.938;2023-07-20T17:06:07;19.70;99.90
20459;DHT22;10388;52.314;7.938;2023-07-20T17:08:38;19.70;99.90
20459;DHT22;10388;52.314;7.938;2023-07-20T17:11:09;19.70;99.90
20459;DHT22;10388;52.314;7.938;2023-07-20T17:13:39;19.70;99.90
20459;DHT22;10388;52.314;7.938;2023-07-20T17:16:10;19.60;99.90
20459;DHT22;10388;52.314;7.938;2023-07-20T17:18:40;19.50;99.90
20459;DHT22;10388;52.314;7.938;2023-07-20T17:21:11;19.40;99.90
20459;DHT22;10388;52.314;7.938;2023-07-20T17:23:41;19.40;99.90
20459;DHT22;10388;52.314;7.938;2023-07-20T17:26:12;19.30;99.90
20459;DHT22;10388;52.314;7.938;2023-07-20T17:28:43;19.20;99.90
20459;DHT22;10388;52.314;7.938;2023-07-20T17:31:14;19.20;99.90
20459;DHT22;10388;52.314;7.938;2023-07-20T17:36:36;19.30;99.90
20459;DHT22;10388;52.314;7.938;2023-07-20T17:39:08;19.30;99.90
20459;DHT22;10388;52.314;7.938;2023-07-20T17:41:38;19.30;99.90
20459;DHT22;10388;52.314;7.938;2023-07-20T17:44:09;19.30;99.90
20459;DHT22;10388;52.314;7.938;2023-07-20T17:46:39;19.20;99.90
20459;DHT22;10388;52.314;7.938;2023-07-20T17:49:10;19.20;99.90
20459;DHT22;10388;52.314;7.938;2023-07-20T17:51:40;19.10;99.90